Tuusula, Finland

11:27 PM EET on January 28, 2015 (GMT +0200)
Vaunukangas | Change Station
CLOSE
Current Station
Personal Weather Station
Location: Suomi,
Elevation: 150 ft
Nearby Weather Stations

Elev 150 ft 60.41 °N, 25.00 °E | Updated 1 minute ago

Light Drizzle
Light Drizzle
33.6 °F
Feels Like 34 °F
N
3.0
Wind Variable Wind from SSW
Gusts 0.0 mph

Today
High -- | Low -- °F
--% Chance of Precip.
Yesterday
High -- | Low -- °F
Precip. -- in
8:46 AM 4:20 PM
Waxing Gibbous, 68% visible
Pressure 29.27 in
Visibility 2.8 miles
Clouds Overcast 500 ft
Windchill 34 °F
Dew Point 31 °F
Humidity 91%
Rainfall 0.00 in
Snow Depth Not available.
UV 0 out of 12
Pollen Not available.
Air Quality Not available.
Flu Activity Not available.
METAR EFHK 282120Z 18018KT 4500 -DZ OVC005 01/M00 Q0991 TEMPO 5000 BKN004

More Conditions Fewer Conditions

Pressure 29.27 in
Visibility 2.8 miles
Clouds Overcast 500 ft
Windchill 34 °F
Dew Point 31 °F
Humidity 91%
Rainfall 0.00 in
Snow Depth Not available.
UV 0 out of 12
Pollen Not available.
Air Quality Not available.
Flu Activity Not available.
METAR EFHK 282120Z 18018KT 4500 -DZ OVC005 01/M00 Q0991 TEMPO 5000 BKN004

More Conditions Fewer Conditions

10-Day Weather Forecast

Almanac

Astronomy

Jan. 28, 2015 Rise Set
Actual Time
Civil Twilight
Nautical Twilight
Astronomical Twilight
Moon
Length of Visible Light
Length of Day
Tomorrow will be .
, % of the Moon is Illuminated

Today's Extremes

Country Highs Country Lows

Community

WunderPhotos

Upload Photos

1,791,263 photos uploaded!

WunderBlogs® & News

Nearby

Air Quality

  Air Quality AQ Index Pollutant
Not available.

Snow Depth

Station Depth Elevation

Earthquake Activity

City Distance Mag. Time & Date
Minimum magnitude displayed is 2.5.

Coastal Water Temperatures

Place Temperature

Nearby Weather Stations